Terminal Aerodrome Forecast
Issued by NWS Cleveland, OH

Home | Current Version | Previous Version | Graphics & Text | Print | Product List | Glossary On
Versions: 1 2 3 4 5 6 7 8 9 10 11 12 13 14 15 16 17 18 19 20 21 22 23
740
FTUS41 KCLE 111542 AAB
TAFERI
TAF AMD
KERI 111542Z 1116/1212 30015G25KT 1 1/2SM -SHSN OVC025
      TEMPO 1116/1118 3/4SM -SHSN OVC015
     FM111800 29014G22KT P6SM -SHSN OVC035
      TEMPO 1118/1120 2SM -SHSN OVC025
     FM120000 27010KT P6SM OVC035
     FM120400 24007KT P6SM BKN035=

USA.gov is the U.S. government's official web portal to all federal, state and local government web resources and services.